• Join FlightAware (Why Join?)
  • Login
  • US Flag 
09:06AM EDT


 

Airport Tracker/Info


-or-


 

Live Flight TrackerFlight Track Log ✈ UAL5862 ✈ 28-May-2014 ✈ KORD - KRIC

Flight Track Log - Related Links

Times and Time Zones

All times are in EDT time to prevent confusion due to time zone crossing. See the UAL5862 flight status page for this flight to view local times or setup timezone preferences in your user account.

Time Position Orientation Groundspeed Altitude Reporting Facility
EDT Latitude Longitude Course Direction KTS MPH feet Rate Location/Type
03:09PM 41.9667 -87.8333 90° East 188 216 3,100  Level Chicago TRACON
03:10PM 41.9017 -87.8275 176° South 233 268 4,700 1,680 Climbing Chicago Center
03:11PM 41.8292 -87.8272 180° South 257 296 6,500 2,160 Climbing Chicago Center
03:12PM 41.7547 -87.8064 168° South 280 322 9,200 2,580 Climbing Chicago Center
03:13PM 41.4309 -87.5738 159° South  Level FlightAware Approximate
03:13PM 41.6775 -87.7542 153° Southeast 290 334 11,900  Level Chicago Center
03:14PM 41.3141 -87.5449 174° South  Level FlightAware Approximate
03:14PM 41.6022 -87.7006 152° Southeast 301 346 13,900  Level Chicago Center
03:15PM 41.2000 -87.5267 90° East  Level FlightAware Approximate
03:15PM 41.5239 -87.6442 152° Southeast 314 361 15,500  Level Chicago Center
03:17PM 41.4286 -87.5769 152° Southeast 360 414 16,500 1,020 Climbing Chicago Center
03:18PM 41.3239 -87.5542 171° South 376 433 17,700 1,320 Climbing Chicago Center
03:19PM 41.2278 -87.5389 173° South 377 434 19,300 1,440 Climbing Chicago Center
03:20PM 41.1233 -87.5131 169° South 377 434 20,700 1,440 Climbing Chicago Center
03:21PM 41.0497 -87.3775 126° Southeast 387 445 22,300 1,260 Climbing Chicago Center
03:22PM 41.0033 -87.2453 115° Southeast 392 451 23,400 1,260 Climbing Chicago Center
03:23PM 40.9539 -87.1114 116° Southeast 403 464 25,000 1,740 Climbing Chicago Center
03:24PM 40.9067 -86.9822 116° Southeast 395 455 27,000 1,800 Climbing Chicago Center
03:25PM 40.8661 -86.8583 113° Southeast 372 428 28,800 1,440 Climbing Chicago Center
03:26PM 40.7794 -86.7467 136° Southeast 363 418 30,000 660 Climbing Chicago Center
03:27PM 40.7136 -86.6661 137° Southeast 379 436 30,200 480 Climbing Chicago Center
03:28PM 40.6261 -86.5631 138° Southeast 392 451 31,000 360 Climbing Chicago Center
03:29PM 40.5375 -86.4597 138° Southeast 420 483 31,000  Level Chicago Center
03:30PM 40.4211 -86.3389 142° Southeast 443 510 31,000 480 Level Chicago Center
03:31PM 40.3489 -86.2022 125° Southeast 462 532 32,000 1,080 Climbing Chicago Center
03:32PM 40.3231 -86.1078 110° East 457 526 32,900 1,320 Climbing Indianapolis Center
03:33PM 40.2800 -85.9528 110° East 456 525 34,400 960 Climbing Indianapolis Center
03:34PM 40.2386 -85.8022 110° East 444 511 35,000 240 Climbing Indianapolis Center
03:35PM 40.1869 -85.6125 110° East 457 526 35,000  Level Indianapolis Center
03:36PM 40.1400 -85.4469 110° East 477 549 35,000  Level Indianapolis Center
03:37PM 40.0933 -85.2794 110° East 485 558 35,000  Level Indianapolis Center
03:38PM 40.0256 -85.1272 120° Southeast 485 558 35,000  Level Indianapolis Center
03:39PM 39.9594 -84.9761 120° Southeast 485 558 35,000  Level Indianapolis Center
03:40PM 39.8811 -84.8164 123° Southeast 476 548 35,000  Level Indianapolis Center
03:41PM 39.8125 -84.6733 122° Southeast 475 547 35,000  Level Indianapolis Center
03:42PM 39.7442 -84.5322 122° Southeast 470 541 35,000  Level Indianapolis Center
03:43PM 39.6758 -84.3911 122° Southeast 468 539 35,000  Level Indianapolis Center
03:44PM 39.5944 -84.2244 122° Southeast 462 532 35,000  Level Indianapolis Center
03:45PM 39.5256 -84.0836 122° Southeast 462 532 35,000  Level Indianapolis Center
03:46PM 39.4558 -83.9411 122° Southeast 467 537 35,000  Level Indianapolis Center
03:47PM 39.3842 -83.7975 123° Southeast 475 547 35,000  Level Indianapolis Center
03:48PM 39.3139 -83.6558 123° Southeast 475 547 35,000  Level Indianapolis Center
03:49PM 39.2297 -83.4850 122° Southeast 475 547 35,000  Level Indianapolis Center
03:50PM 39.1586 -83.3439 123° Southeast 474 545 35,000  Level Indianapolis Center
03:52PM 39.0225 -83.0714 125° Southeast 474 545 35,000  Level Indianapolis Center
03:53PM 38.9350 -82.9017 123° Southeast 476 548 35,000  Level Indianapolis Center
03:54PM 38.8628 -82.7586 123° Southeast 477 549 35,000  Level Indianapolis Center
03:55PM 38.7897 -82.6150 123° Southeast 478 550 35,000  Level Indianapolis Center
03:57PM 38.7153 -82.4725 124° Southeast 479 551 35,000  Level Indianapolis Center
03:58PM 38.6428 -82.3297 123° Southeast 479 551 35,000  Level Indianapolis Center
03:59PM 38.5536 -82.1597 124° Southeast 480 552 35,000  Level Indianapolis Center
04:01PM 38.4058 -81.8781 124° Southeast 480 552 35,000  Level Indianapolis Center
04:02PM 38.3442 -81.7292 118° Southeast 483 556 35,000  Level Indianapolis Center
04:03PM 38.3169 -81.5661 102° East 482 555 35,000  Level Indianapolis Center
04:04PM 38.2858 -81.3697 101° East 480 552 35,000 -900 Level Indianapolis Center
04:05PM 38.2600 -81.2053 101° East 479 551 33,200 -1,800 Descending Indianapolis Center
04:06PM 38.2319 -81.0403 102° East 479 551 31,400 -1,740 Descending Indianapolis Center
04:07PM 38.2047 -80.8725 102° East 482 555 29,700 -1,200 Descending Indianapolis Center
04:08PM 38.1783 -80.7061 101° East 483 556 29,000 -480 Descending Indianapolis Center
04:08PM 38.1583 -80.5989 103° East 478 550 29,000 -360 Level Washington Center
04:09PM 38.1319 -80.4333 101° East 472 543 28,500 -900 Descending Washington Center
04:10PM 38.1067 -80.2814 102° East 472 543 27,300 -1,560 Descending Washington Center
04:11PM 38.0775 -80.1158 103° East 472 543 25,400 -1,920 Descending Washington Center
04:12PM 38.0522 -79.9561 101° East 467 537 23,500 -1,920 Descending Washington Center
04:13PM 38.0244 -79.7989 103° East 461 531 21,600 -1,260 Descending Washington Center
04:14PM 37.9947 -79.6314 103° East 450 518 21,000 -360 Descending Washington Center
04:15PM 37.9686 -79.4769 102° East 450 518 21,000  Level Washington Center
04:16PM 37.9422 -79.3231 102° East 450 518 21,000  Level Washington Center
04:17PM 37.9136 -79.1689 103° East 450 518 21,000 -120 Level Washington Center
04:18PM 37.8783 -79.0172 106° East 450 518 20,800 -840 Descending Washington Center
04:19PM 37.8403 -78.8892 111° Southeast 444 511 19,400 -1,680 Descending Washington Center
04:20PM 37.8086 -78.7433 105° East 437 503 17,500 -1,860 Descending Washington Center
04:21PM 37.8208 -78.5967 84° East 412 474 15,800 -1,500 Descending Washington Center
04:22PM 37.8344 -78.4578 83° East 400 460 14,500 -1,320 Descending Washington Center
04:23PM 37.8528 -78.3006 82° East 410 472 13,300 -1,200 Descending Washington Center
04:24PM 37.8678 -78.1881 80° East 405 466 12,200 -1,200 Descending Washington Center
04:25PM 37.8417 -78.0453 103° East 388 447 11,000 -1,140 Descending Washington Center
04:26PM 37.7325 -77.9708 152° Southeast 354 407 10,000 -660 Descending Washington Center
04:27PM 37.6544 -77.9158 151° Southeast 347 399 9,700 -780 Descending Washington Center
04:28PM 37.5825 -77.8586 148° Southeast 323 372 8,500 -1,440 Descending Washington Center
04:29PM 37.5467 -77.7686 117° Southeast 284 327 6,900 -1,740 Descending Washington Center
04:30PM 37.5169 -77.6786 113° Southeast 284 327 5,100 -1,740 Descending Washington Center
04:31PM 37.4850 -77.5889 114° Southeast 279 321 3,400 -1,500 Descending Washington Center
04:32PM 37.4572 -77.5042 112° Southeast 272 313 2,200 -720 Descending Washington Center
04:33PM 37.4333 -77.4306 112° Southeast 248 285 2,000 -540 Descending Washington Center
04:35PM 37.4667 -77.3333 67° East 145 167 700 -720 Descending Potomac TRACON